sensor_id;sensor_type;location;lat;lon;timestamp;temperature;humidity
23991;DHT22;12205;50.600;4.608;2023-01-15T00:02:10;7.10;99.90
23991;DHT22;12205;50.600;4.608;2023-01-15T00:04:41;7.10;99.90
23991;DHT22;12205;50.600;4.608;2023-01-15T00:07:10;7.10;99.90
23991;DHT22;12205;50.600;4.608;2023-01-15T00:09:37;7.10;99.90
23991;DHT22;12205;50.600;4.608;2023-01-15T00:12:04;7.20;99.90
23991;DHT22;12205;50.600;4.608;2023-01-15T00:14:31;7.20;99.90
23991;DHT22;12205;50.600;4.608;2023-01-15T00:16:59;7.20;99.90
23991;DHT22;12205;50.600;4.608;2023-01-15T00:19:26;7.20;99.90
23991;DHT22;12205;50.600;4.608;2023-01-15T00:21:53;7.10;99.90
23991;DHT22;12205;50.600;4.608;2023-01-15T00:24:21;7.10;99.90
23991;DHT22;12205;50.600;4.608;2023-01-15T00:27:09;7.10;99.90
23991;DHT22;12205;50.600;4.608;2023-01-15T00:29:53;7.10;99.90
23991;DHT22;12205;50.600;4.608;2023-01-15T00:32:20;7.10;99.90
23991;DHT22;12205;50.600;4.608;2023-01-15T00:34:47;7.10;99.90
23991;DHT22;12205;50.600;4.608;2023-01-15T00:37:15;7.10;99.90
23991;DHT22;12205;50.600;4.608;2023-01-15T00:39:43;7.20;99.90
23991;DHT22;12205;50.600;4.608;2023-01-15T00:42:11;7.10;99.90
23991;DHT22;12205;50.600;4.608;2023-01-15T00:44:39;7.10;99.90
23991;DHT22;12205;50.600;4.608;2023-01-15T00:47:06;7.10;99.90
23991;DHT22;12205;50.600;4.608;2023-01-15T00:49:39;7.10;99.90
23991;DHT22;12205;50.600;4.608;2023-01-15T00:52:07;7.10;99.90
23991;DHT22;12205;50.600;4.608;2023-01-15T00:54:34;7.10;99.90
23991;DHT22;12205;50.600;4.608;2023-01-15T00:57:03;7.10;99.90
23991;DHT22;12205;50.600;4.608;2023-01-15T00:59:30;7.10;99.90
23991;DHT22;12205;50.600;4.608;2023-01-15T01:01:57;7.10;99.90
23991;DHT22;12205;50.600;4.608;2023-01-15T01:04:24;7.10;99.90
23991;DHT22;12205;50.600;4.608;2023-01-15T01:06:52;7.10;99.90
23991;DHT22;12205;50.600;4.608;2023-01-15T01:09:19;7.10;99.90
23991;DHT22;12205;50.600;4.608;2023-01-15T01:11:48;7.10;99.90
23991;DHT22;12205;50.600;4.608;2023-01-15T01:14:17;7.10;99.90
23991;DHT22;12205;50.600;4.608;2023-01-15T01:16:44;7.10;99.90
23991;DHT22;12205;50.600;4.608;2023-01-15T01:19:13;7.10;99.90
23991;DHT22;12205;50.600;4.608;2023-01-15T01:21:43;7.10;99.90
23991;DHT22;12205;50.600;4.608;2023-01-15T01:24:12;7.10;99.90
23991;DHT22;12205;50.600;4.608;2023-01-15T01:26:41;7.10;99.90
23991;DHT22;12205;50.600;4.608;2023-01-15T01:29:11;7.10;99.90
23991;DHT22;12205;50.600;4.608;2023-01-15T01:31:40;7.10;99.90
23991;DHT22;12205;50.600;4.608;2023-01-15T01:34:08;7.10;99.90
23991;DHT22;12205;50.600;4.608;2023-01-15T01:36:38;7.10;99.90
23991;DHT22;12205;50.600;4.608;2023-01-15T01:39:08;7.10;99.90
23991;DHT22;12205;50.600;4.608;2023-01-15T01:41:39;7.00;99.90
23991;DHT22;12205;50.600;4.608;2023-01-15T01:44:53;7.10;99.90
23991;DHT22;12205;50.600;4.608;2023-01-15T01:47:15;7.10;99.90
23991;DHT22;12205;50.600;4.608;2023-01-15T01:49:48;7.10;99.90
23991;DHT22;12205;50.600;4.608;2023-01-15T01:52:22;7.00;99.90
23991;DHT22;12205;50.600;4.608;2023-01-15T01:54:53;7.10;99.90
23991;DHT22;12205;50.600;4.608;2023-01-15T01:57:23;7.10;99.90
23991;DHT22;12205;50.600;4.608;2023-01-15T01:59:51;7.10;99.90
23991;DHT22;12205;50.600;4.608;2023-01-15T02:02:21;7.10;99.90
23991;DHT22;12205;50.600;4.608;2023-01-15T02:04:49;7.10;99.90
23991;DHT22;12205;50.600;4.608;2023-01-15T02:07:16;7.00;99.90
23991;DHT22;12205;50.600;4.608;2023-01-15T02:09:44;7.00;99.90
23991;DHT22;12205;50.600;4.608;2023-01-15T02:12:15;7.00;99.90
23991;DHT22;12205;50.600;4.608;2023-01-15T02:14:54;7.00;99.90
23991;DHT22;12205;50.600;4.608;2023-01-15T02:17:33;7.00;99.90
23991;DHT22;12205;50.600;4.608;2023-01-15T02:20:22;7.00;99.90
23991;DHT22;12205;50.600;4.608;2023-01-15T02:23:20;7.00;99.90
23991;DHT22;12205;50.600;4.608;2023-01-15T02:29:22;6.90;99.90
23991;DHT22;12205;50.600;4.608;2023-01-15T02:32:00;6.90;99.90
23991;DHT22;12205;50.600;4.608;2023-01-15T02:34:32;6.90;99.90
23991;DHT22;12205;50.600;4.608;2023-01-15T02:37:09;6.90;99.90
23991;DHT22;12205;50.600;4.608;2023-01-15T02:39:43;6.80;99.90
23991;DHT22;12205;50.600;4.608;2023-01-15T02:42:14;6.90;99.90
23991;DHT22;12205;50.600;4.608;2023-01-15T02:44:50;6.90;99.90
23991;DHT22;12205;50.600;4.608;2023-01-15T02:47:21;6.80;99.90
23991;DHT22;12205;50.600;4.608;2023-01-15T02:49:54;6.80;99.90
23991;DHT22;12205;50.600;4.608;2023-01-15T02:52:27;6.80;99.90
23991;DHT22;12205;50.600;4.608;2023-01-15T02:54:59;6.80;99.90
23991;DHT22;12205;50.600;4.608;2023-01-15T02:57:34;6.80;99.90
23991;DHT22;12205;50.600;4.608;2023-01-15T03:00:10;6.80;99.90
23991;DHT22;12205;50.600;4.608;2023-01-15T03:02:43;6.80;99.90
23991;DHT22;12205;50.600;4.608;2023-01-15T03:05:17;6.80;99.90
23991;DHT22;12205;50.600;4.608;2023-01-15T03:07:50;6.80;99.90
23991;DHT22;12205;50.600;4.608;2023-01-15T03:10:22;6.70;99.90
23991;DHT22;12205;50.600;4.608;2023-01-15T03:13:00;6.80;99.90
23991;DHT22;12205;50.600;4.608;2023-01-15T03:15:52;6.70;99.90
23991;DHT22;12205;50.600;4.608;2023-01-15T03:18:44;6.70;99.90
23991;DHT22;12205;50.600;4.608;2023-01-15T03:21:28;6.70;99.90
23991;DHT22;12205;50.600;4.608;2023-01-15T03:24:03;6.60;99.90
23991;DHT22;12205;50.600;4.608;2023-01-15T03:26:34;6.70;99.90
23991;DHT22;12205;50.600;4.608;2023-01-15T03:29:02;6.70;99.90
23991;DHT22;12205;50.600;4.608;2023-01-15T03:31:35;6.70;99.90
23991;DHT22;12205;50.600;4.608;2023-01-15T03:34:03;6.60;99.90
23991;DHT22;12205;50.600;4.608;2023-01-15T03:36:32;6.60;99.90
23991;DHT22;12205;50.600;4.608;2023-01-15T03:39:01;6.70;99.90
23991;DHT22;12205;50.600;4.608;2023-01-15T03:42:02;6.60;99.90
23991;DHT22;12205;50.600;4.608;2023-01-15T03:44:44;6.70;99.90
23991;DHT22;12205;50.600;4.608;2023-01-15T03:47:27;6.60;99.90
23991;DHT22;12205;50.600;4.608;2023-01-15T03:50:04;6.60;99.90
23991;DHT22;12205;50.600;4.608;2023-01-15T03:52:46;6.60;99.90
23991;DHT22;12205;50.600;4.608;2023-01-15T03:55:22;6.60;99.90
23991;DHT22;12205;50.600;4.608;2023-01-15T03:58:08;6.60;99.90
23991;DHT22;12205;50.600;4.608;2023-01-15T04:00:42;6.60;99.90
23991;DHT22;12205;50.600;4.608;2023-01-15T04:03:18;6.60;99.90
23991;DHT22;12205;50.600;4.608;2023-01-15T04:05:49;6.60;99.90
23991;DHT22;12205;50.600;4.608;2023-01-15T04:08:19;6.60;99.90
23991;DHT22;12205;50.600;4.608;2023-01-15T04:10:50;6.50;99.90
23991;DHT22;12205;50.600;4.608;2023-01-15T04:13:19;6.40;99.90
23991;DHT22;12205;50.600;4.608;2023-01-15T04:15:47;6.40;99.90
23991;DHT22;12205;50.600;4.608;2023-01-15T04:18:16;6.40;99.90
23991;DHT22;12205;50.600;4.608;2023-01-15T04:20:44;6.40;99.90
23991;DHT22;12205;50.600;4.608;2023-01-15T04:23:13;6.40;99.90
23991;DHT22;12205;50.600;4.608;2023-01-15T04:25:41;6.40;99.90
23991;DHT22;12205;50.600;4.608;2023-01-15T04:28:09;6.40;99.90
23991;DHT22;12205;50.600;4.608;2023-01-15T04:30:38;6.40;99.90
23991;DHT22;12205;50.600;4.608;2023-01-15T04:33:08;6.40;99.90
23991;DHT22;12205;50.600;4.608;2023-01-15T04:35:37;6.30;99.90
23991;DHT22;12205;50.600;4.608;2023-01-15T04:38:04;6.40;99.90
23991;DHT22;12205;50.600;4.608;2023-01-15T04:40:32;6.40;99.90
23991;DHT22;12205;50.600;4.608;2023-01-15T04:43:17;6.40;99.90
23991;DHT22;12205;50.600;4.608;2023-01-15T04:46:01;6.30;99.90
23991;DHT22;12205;50.600;4.608;2023-01-15T04:48:29;6.30;99.90
23991;DHT22;12205;50.600;4.608;2023-01-15T04:51:01;6.30;99.90
23991;DHT22;12205;50.600;4.608;2023-01-15T04:53:29;6.30;99.90
23991;DHT22;12205;50.600;4.608;2023-01-15T04:55:59;6.30;99.90
23991;DHT22;12205;50.600;4.608;2023-01-15T04:58:28;6.30;99.90
23991;DHT22;12205;50.600;4.608;2023-01-15T05:00:56;6.30;99.90
23991;DHT22;12205;50.600;4.608;2023-01-15T05:03:25;6.30;99.90
23991;DHT22;12205;50.600;4.608;2023-01-15T05:05:52;6.30;99.90
23991;DHT22;12205;50.600;4.608;2023-01-15T05:08:21;6.30;99.90
23991;DHT22;12205;50.600;4.608;2023-01-15T05:10:48;6.30;99.90
23991;DHT22;12205;50.600;4.608;2023-01-15T05:13:15;6.20;99.90
23991;DHT22;12205;50.600;4.608;2023-01-15T05:15:42;6.20;99.90
23991;DHT22;12205;50.600;4.608;2023-01-15T05:18:10;6.10;99.90
23991;DHT22;12205;50.600;4.608;2023-01-15T05:20:39;6.10;99.90
23991;DHT22;12205;50.600;4.608;2023-01-15T05:23:07;6.10;99.90
23991;DHT22;12205;50.600;4.608;2023-01-15T05:25:37;6.00;99.90
23991;DHT22;12205;50.600;4.608;2023-01-15T05:28:04;6.00;99.90
23991;DHT22;12205;50.600;4.608;2023-01-15T05:30:31;6.00;99.90
23991;DHT22;12205;50.600;4.608;2023-01-15T05:32:58;5.90;99.90
23991;DHT22;12205;50.600;4.608;2023-01-15T05:35:26;5.90;99.90
23991;DHT22;12205;50.600;4.608;2023-01-15T05:37:53;5.90;99.90
23991;DHT22;12205;50.600;4.608;2023-01-15T05:40:20;5.90;99.90
23991;DHT22;12205;50.600;4.608;2023-01-15T05:42:48;5.90;99.90
23991;DHT22;12205;50.600;4.608;2023-01-15T05:45:16;5.90;99.90
23991;DHT22;12205;50.600;4.608;2023-01-15T05:47:43;5.80;99.90
23991;DHT22;12205;50.600;4.608;2023-01-15T05:50:11;5.80;99.90
23991;DHT22;12205;50.600;4.608;2023-01-15T05:52:38;5.90;99.90
23991;DHT22;12205;50.600;4.608;2023-01-15T05:55:06;5.90;99.90
23991;DHT22;12205;50.600;4.608;2023-01-15T05:57:33;5.80;99.90
23991;DHT22;12205;50.600;4.608;2023-01-15T06:00:02;5.80;99.90
23991;DHT22;12205;50.600;4.608;2023-01-15T06:02:38;5.80;99.90
23991;DHT22;12205;50.600;4.608;2023-01-15T06:05:06;5.90;99.90
23991;DHT22;12205;50.600;4.608;2023-01-15T06:07:33;5.90;99.90
23991;DHT22;12205;50.600;4.608;2023-01-15T06:10:01;5.90;99.90
23991;DHT22;12205;50.600;4.608;2023-01-15T06:12:28;5.90;99.90
23991;DHT22;12205;50.600;4.608;2023-01-15T06:14:55;5.90;99.90
23991;DHT22;12205;50.600;4.608;2023-01-15T06:17:23;6.00;99.90
23991;DHT22;12205;50.600;4.608;2023-01-15T06:19:50;6.00;99.90
23991;DHT22;12205;50.600;4.608;2023-01-15T06:22:18;5.90;99.90
23991;DHT22;12205;50.600;4.608;2023-01-15T06:24:45;5.90;99.90
23991;DHT22;12205;50.600;4.608;2023-01-15T06:27:12;5.90;99.90
23991;DHT22;12205;50.600;4.608;2023-01-15T06:29:39;5.90;99.90
23991;DHT22;12205;50.600;4.608;2023-01-15T06:32:06;5.90;99.90
23991;DHT22;12205;50.600;4.608;2023-01-15T06:34:35;5.90;99.90
23991;DHT22;12205;50.600;4.608;2023-01-15T06:37:02;5.80;99.90
23991;DHT22;12205;50.600;4.608;2023-01-15T06:39:29;5.80;99.90
23991;DHT22;12205;50.600;4.608;2023-01-15T06:41:56;5.80;99.90
23991;DHT22;12205;50.600;4.608;2023-01-15T06:44:41;5.80;99.90
23991;DHT22;12205;50.600;4.608;2023-01-15T06:47:31;5.80;99.90
23991;DHT22;12205;50.600;4.608;2023-01-15T06:49:59;5.80;99.90
23991;DHT22;12205;50.600;4.608;2023-01-15T06:52:28;5.80;99.90
23991;DHT22;12205;50.600;4.608;2023-01-15T06:54:56;5.70;99.90
23991;DHT22;12205;50.600;4.608;2023-01-15T06:57:23;5.70;99.90
23991;DHT22;12205;50.600;4.608;2023-01-15T06:59:51;5.70;99.90
23991;DHT22;12205;50.600;4.608;2023-01-15T07:02:18;5.70;99.90
23991;DHT22;12205;50.600;4.608;2023-01-15T07:04:47;5.70;99.90
23991;DHT22;12205;50.600;4.608;2023-01-15T07:07:16;5.70;99.90
23991;DHT22;12205;50.600;4.608;2023-01-15T07:09:44;5.60;99.90
23991;DHT22;12205;50.600;4.608;2023-01-15T07:12:12;5.60;99.90
23991;DHT22;12205;50.600;4.608;2023-01-15T07:14:39;5.60;99.90
23991;DHT22;12205;50.600;4.608;2023-01-15T07:17:06;5.60;99.90
23991;DHT22;12205;50.600;4.608;2023-01-15T07:19:35;5.60;99.90
23991;DHT22;12205;50.600;4.608;2023-01-15T07:22:02;5.60;99.90
23991;DHT22;12205;50.600;4.608;2023-01-15T07:24:31;5.50;99.90
23991;DHT22;12205;50.600;4.608;2023-01-15T07:26:59;5.50;99.90
23991;DHT22;12205;50.600;4.608;2023-01-15T07:29:26;5.50;99.90
23991;DHT22;12205;50.600;4.608;2023-01-15T07:31:54;5.40;99.90
23991;DHT22;12205;50.600;4.608;2023-01-15T07:34:22;5.40;99.90
23991;DHT22;12205;50.600;4.608;2023-01-15T07:36:49;5.40;99.90
23991;DHT22;12205;50.600;4.608;2023-01-15T07:39:16;5.40;99.90
23991;DHT22;12205;50.600;4.608;2023-01-15T07:41:45;5.30;99.90
23991;DHT22;12205;50.600;4.608;2023-01-15T07:44:33;5.30;99.90
23991;DHT22;12205;50.600;4.608;2023-01-15T07:47:19;5.30;99.90
23991;DHT22;12205;50.600;4.608;2023-01-15T07:50:07;5.20;99.90
23991;DHT22;12205;50.600;4.608;2023-01-15T07:52:36;5.20;99.90
23991;DHT22;12205;50.600;4.608;2023-01-15T07:55:04;5.20;99.90
23991;DHT22;12205;50.600;4.608;2023-01-15T07:57:35;5.20;99.90
23991;DHT22;12205;50.600;4.608;2023-01-15T08:00:04;5.20;99.90
23991;DHT22;12205;50.600;4.608;2023-01-15T08:02:37;5.20;99.90
23991;DHT22;12205;50.600;4.608;2023-01-15T08:05:06;5.20;99.90
23991;DHT22;12205;50.600;4.608;2023-01-15T08:07:36;5.20;99.90
23991;DHT22;12205;50.600;4.608;2023-01-15T08:10:04;5.10;99.90
23991;DHT22;12205;50.600;4.608;2023-01-15T08:12:33;5.20;99.90
23991;DHT22;12205;50.600;4.608;2023-01-15T08:15:18;5.20;99.90
23991;DHT22;12205;50.600;4.608;2023-01-15T08:17:46;5.20;99.90
23991;DHT22;12205;50.600;4.608;2023-01-15T08:20:16;5.20;99.90
23991;DHT22;12205;50.600;4.608;2023-01-15T08:22:45;5.20;99.90
23991;DHT22;12205;50.600;4.608;2023-01-15T08:25:15;5.20;99.90
23991;DHT22;12205;50.600;4.608;2023-01-15T08:27:46;5.20;99.90
23991;DHT22;12205;50.600;4.608;2023-01-15T08:30:15;5.20;99.90
23991;DHT22;12205;50.600;4.608;2023-01-15T08:32:43;5.20;99.90
23991;DHT22;12205;50.600;4.608;2023-01-15T08:35:11;5.20;99.90
23991;DHT22;12205;50.600;4.608;2023-01-15T08:37:39;5.10;99.90
23991;DHT22;12205;50.600;4.608;2023-01-15T08:40:07;5.10;99.90
23991;DHT22;12205;50.600;4.608;2023-01-15T08:42:36;5.20;99.90
23991;DHT22;12205;50.600;4.608;2023-01-15T08:45:06;5.20;99.90
23991;DHT22;12205;50.600;4.608;2023-01-15T08:47:34;5.20;99.90
23991;DHT22;12205;50.600;4.608;2023-01-15T08:50:02;5.20;99.90
23991;DHT22;12205;50.600;4.608;2023-01-15T08:52:29;5.20;99.90
23991;DHT22;12205;50.600;4.608;2023-01-15T08:54:56;5.20;99.90
23991;DHT22;12205;50.600;4.608;2023-01-15T08:57:23;5.20;99.90
23991;DHT22;12205;50.600;4.608;2023-01-15T08:59:51;5.20;99.90
23991;DHT22;12205;50.600;4.608;2023-01-15T09:02:19;5.20;99.90
23991;DHT22;12205;50.600;4.608;2023-01-15T09:04:46;5.20;99.90
23991;DHT22;12205;50.600;4.608;2023-01-15T09:07:13;5.20;99.90
23991;DHT22;12205;50.600;4.608;2023-01-15T09:09:41;5.20;99.90
23991;DHT22;12205;50.600;4.608;2023-01-15T09:12:08;5.20;99.90
23991;DHT22;12205;50.600;4.608;2023-01-15T09:14:35;5.20;99.90
23991;DHT22;12205;50.600;4.608;2023-01-15T09:17:02;5.30;99.90
23991;DHT22;12205;50.600;4.608;2023-01-15T09:19:31;5.30;99.90
23991;DHT22;12205;50.600;4.608;2023-01-15T09:21:58;5.30;99.90
23991;DHT22;12205;50.600;4.608;2023-01-15T09:24:25;5.30;99.90
23991;DHT22;12205;50.600;4.608;2023-01-15T09:26:52;5.40;99.90
23991;DHT22;12205;50.600;4.608;2023-01-15T09:29:19;5.40;99.90
23991;DHT22;12205;50.600;4.608;2023-01-15T09:31:47;5.30;99.90
23991;DHT22;12205;50.600;4.608;2023-01-15T09:34:14;5.40;99.90
23991;DHT22;12205;50.600;4.608;2023-01-15T09:36:42;5.40;99.90
23991;DHT22;12205;50.600;4.608;2023-01-15T09:39:11;5.50;99.90
23991;DHT22;12205;50.600;4.608;2023-01-15T09:41:51;5.50;99.90
23991;DHT22;12205;50.600;4.608;2023-01-15T09:44:50;5.60;99.90
23991;DHT22;12205;50.600;4.608;2023-01-15T09:47:32;5.60;99.90
23991;DHT22;12205;50.600;4.608;2023-01-15T09:50:20;5.70;99.90
23991;DHT22;12205;50.600;4.608;2023-01-15T09:56:21;5.90;99.90
23991;DHT22;12205;50.600;4.608;2023-01-15T09:58:53;5.90;99.90
23991;DHT22;12205;50.600;4.608;2023-01-15T10:01:26;5.90;99.90
23991;DHT22;12205;50.600;4.608;2023-01-15T10:04:00;5.90;99.90
23991;DHT22;12205;50.600;4.608;2023-01-15T10:06:34;6.00;99.90
23991;DHT22;12205;50.600;4.608;2023-01-15T10:09:13;5.80;99.90
23991;DHT22;12205;50.600;4.608;2023-01-15T10:11:45;5.80;99.90
23991;DHT22;12205;50.600;4.608;2023-01-15T10:14:39;5.70;99.90
23991;DHT22;12205;50.600;4.608;2023-01-15T10:17:24;5.70;99.90
23991;DHT22;12205;50.600;4.608;2023-01-15T10:19:56;5.70;99.90
23991;DHT22;12205;50.600;4.608;2023-01-15T10:22:48;5.60;99.90
23991;DHT22;12205;50.600;4.608;2023-01-15T10:25:30;5.60;99.90
23991;DHT22;12205;50.600;4.608;2023-01-15T10:28:12;5.60;99.90
23991;DHT22;12205;50.600;4.608;2023-01-15T10:30:47;5.70;99.90
23991;DHT22;12205;50.600;4.608;2023-01-15T10:33:43;5.70;99.90
23991;DHT22;12205;50.600;4.608;2023-01-15T10:36:32;5.70;99.90
23991;DHT22;12205;50.600;4.608;2023-01-15T10:39:09;5.70;99.90
23991;DHT22;12205;50.600;4.608;2023-01-15T10:41:48;5.70;99.90
23991;DHT22;12205;50.600;4.608;2023-01-15T10:44:26;5.70;99.90
23991;DHT22;12205;50.600;4.608;2023-01-15T10:47:06;5.70;99.90
23991;DHT22;12205;50.600;4.608;2023-01-15T10:49:40;5.80;99.90
23991;DHT22;12205;50.600;4.608;2023-01-15T10:52:22;5.70;99.90
23991;DHT22;12205;50.600;4.608;2023-01-15T10:54:58;5.70;99.90
23991;DHT22;12205;50.600;4.608;2023-01-15T10:57:40;5.80;99.90
23991;DHT22;12205;50.600;4.608;2023-01-15T11:00:14;5.80;99.90
23991;DHT22;12205;50.600;4.608;2023-01-15T11:02:44;5.90;99.90
23991;DHT22;12205;50.600;4.608;2023-01-15T11:05:15;5.90;99.90
23991;DHT22;12205;50.600;4.608;2023-01-15T11:07:47;6.00;99.90
23991;DHT22;12205;50.600;4.608;2023-01-15T11:10:17;6.00;99.90
23991;DHT22;12205;50.600;4.608;2023-01-15T11:12:51;6.10;99.90
23991;DHT22;12205;50.600;4.608;2023-01-15T11:15:40;6.10;99.90
23991;DHT22;12205;50.600;4.608;2023-01-15T11:18:41;6.10;99.90
23991;DHT22;12205;50.600;4.608;2023-01-15T11:21:28;6.20;99.90
23991;DHT22;12205;50.600;4.608;2023-01-15T11:23:57;6.20;99.90
23991;DHT22;12205;50.600;4.608;2023-01-15T11:26:27;6.20;99.90
23991;DHT22;12205;50.600;4.608;2023-01-15T11:28:59;6.30;99.90
23991;DHT22;12205;50.600;4.608;2023-01-15T11:31:38;6.30;99.90
23991;DHT22;12205;50.600;4.608;2023-01-15T11:34:17;6.40;99.90
23991;DHT22;12205;50.600;4.608;2023-01-15T11:36:46;6.50;99.90
23991;DHT22;12205;50.600;4.608;2023-01-15T11:39:31;6.60;99.90
23991;DHT22;12205;50.600;4.608;2023-01-15T11:42:00;6.70;99.90
23991;DHT22;12205;50.600;4.608;2023-01-15T11:44:54;6.70;99.90
23991;DHT22;12205;50.600;4.608;2023-01-15T11:47:49;6.70;99.90
23991;DHT22;12205;50.600;4.608;2023-01-15T11:50:34;6.60;99.90
23991;DHT22;12205;50.600;4.608;2023-01-15T11:53:15;6.60;99.90
23991;DHT22;12205;50.600;4.608;2023-01-15T11:55:52;6.50;99.90
23991;DHT22;12205;50.600;4.608;2023-01-15T11:58:27;6.60;99.90
23991;DHT22;12205;50.600;4.608;2023-01-15T12:00:59;6.60;99.90
23991;DHT22;12205;50.600;4.608;2023-01-15T12:03:29;6.70;99.90
23991;DHT22;12205;50.600;4.608;2023-01-15T12:06:03;6.70;99.90
23991;DHT22;12205;50.600;4.608;2023-01-15T12:08:42;6.70;99.90
23991;DHT22;12205;50.600;4.608;2023-01-15T12:17:49;6.90;99.90
23991;DHT22;12205;50.600;4.608;2023-01-15T12:20:27;6.80;99.90
23991;DHT22;12205;50.600;4.608;2023-01-15T12:23:08;6.90;99.90
23991;DHT22;12205;50.600;4.608;2023-01-15T12:25:55;6.80;99.90
23991;DHT22;12205;50.600;4.608;2023-01-15T12:28:32;6.90;99.90
23991;DHT22;12205;50.600;4.608;2023-01-15T12:31:06;6.80;99.90
23991;DHT22;12205;50.600;4.608;2023-01-15T12:33:44;6.80;99.90
23991;DHT22;12205;50.600;4.608;2023-01-15T12:36:17;6.80;99.90
23991;DHT22;12205;50.600;4.608;2023-01-15T12:38:50;6.80;99.90
23991;DHT22;12205;50.600;4.608;2023-01-15T12:41:24;6.90;99.90
23991;DHT22;12205;50.600;4.608;2023-01-15T12:44:15;6.90;99.90
23991;DHT22;12205;50.600;4.608;2023-01-15T12:47:05;6.90;99.90
23991;DHT22;12205;50.600;4.608;2023-01-15T12:49:41;6.90;99.90
23991;DHT22;12205;50.600;4.608;2023-01-15T12:52:13;6.90;99.90
23991;DHT22;12205;50.600;4.608;2023-01-15T12:54:50;6.90;99.90
23991;DHT22;12205;50.600;4.608;2023-01-15T12:57:27;6.90;99.90
23991;DHT22;12205;50.600;4.608;2023-01-15T13:00:02;6.90;99.90
23991;DHT22;12205;50.600;4.608;2023-01-15T13:02:41;6.90;99.90
23991;DHT22;12205;50.600;4.608;2023-01-15T13:05:27;6.80;99.90
23991;DHT22;12205;50.600;4.608;2023-01-15T13:08:00;6.70;99.90
23991;DHT22;12205;50.600;4.608;2023-01-15T13:10:32;6.70;99.90
23991;DHT22;12205;50.600;4.608;2023-01-15T13:13:13;6.70;99.90
23991;DHT22;12205;50.600;4.608;2023-01-15T13:15:55;6.80;99.90
23991;DHT22;12205;50.600;4.608;2023-01-15T13:18:35;6.80;99.90
23991;DHT22;12205;50.600;4.608;2023-01-15T13:21:13;6.80;99.90
23991;DHT22;12205;50.600;4.608;2023-01-15T13:24:00;6.80;99.90
23991;DHT22;12205;50.600;4.608;2023-01-15T13:26:59;6.70;99.90
23991;DHT22;12205;50.600;4.608;2023-01-15T13:29:43;6.70;99.90
23991;DHT22;12205;50.600;4.608;2023-01-15T13:32:19;6.80;99.90
23991;DHT22;12205;50.600;4.608;2023-01-15T13:34:53;6.70;99.90
23991;DHT22;12205;50.600;4.608;2023-01-15T13:37:27;6.70;99.90
23991;DHT22;12205;50.600;4.608;2023-01-15T13:39:59;6.80;99.90
23991;DHT22;12205;50.600;4.608;2023-01-15T13:42:29;6.80;99.90
23991;DHT22;12205;50.600;4.608;2023-01-15T13:45:00;6.80;99.90
23991;DHT22;12205;50.600;4.608;2023-01-15T13:47:32;6.90;99.90
23991;DHT22;12205;50.600;4.608;2023-01-15T13:50:04;6.80;99.90
23991;DHT22;12205;50.600;4.608;2023-01-15T13:52:42;6.90;99.90
23991;DHT22;12205;50.600;4.608;2023-01-15T13:55:20;6.80;99.90
23991;DHT22;12205;50.600;4.608;2023-01-15T13:57:55;6.70;99.90
23991;DHT22;12205;50.600;4.608;2023-01-15T14:00:29;6.70;99.90
23991;DHT22;12205;50.600;4.608;2023-01-15T14:02:59;6.70;99.90
23991;DHT22;12205;50.600;4.608;2023-01-15T14:05:30;6.70;99.90
23991;DHT22;12205;50.600;4.608;2023-01-15T14:08:01;6.70;99.90
23991;DHT22;12205;50.600;4.608;2023-01-15T14:10:41;6.80;99.90
23991;DHT22;12205;50.600;4.608;2023-01-15T14:13:34;6.80;99.90
23991;DHT22;12205;50.600;4.608;2023-01-15T14:16:17;6.80;99.90
23991;DHT22;12205;50.600;4.608;2023-01-15T14:19:10;6.80;99.90
23991;DHT22;12205;50.600;4.608;2023-01-15T14:21:59;6.90;99.90
23991;DHT22;12205;50.600;4.608;2023-01-15T14:25:03;7.00;99.90
23991;DHT22;12205;50.600;4.608;2023-01-15T14:27:52;7.00;99.90
23991;DHT22;12205;50.600;4.608;2023-01-15T14:31:00;6.90;99.90
23991;DHT22;12205;50.600;4.608;2023-01-15T14:33:54;6.90;99.90
23991;DHT22;12205;50.600;4.608;2023-01-15T14:36:37;6.90;99.90
23991;DHT22;12205;50.600;4.608;2023-01-15T14:39:24;7.00;99.90
23991;DHT22;12205;50.600;4.608;2023-01-15T14:42:01;6.90;99.90
23991;DHT22;12205;50.600;4.608;2023-01-15T14:44:59;7.00;99.90
23991;DHT22;12205;50.600;4.608;2023-01-15T14:47:34;7.00;99.90
23991;DHT22;12205;50.600;4.608;2023-01-15T14:50:22;7.00;99.90
23991;DHT22;12205;50.600;4.608;2023-01-15T14:56:01;6.70;99.90
23991;DHT22;12205;50.600;4.608;2023-01-15T14:58:48;6.60;99.90
23991;DHT22;12205;50.600;4.608;2023-01-15T15:01:29;6.50;99.90
23991;DHT22;12205;50.600;4.608;2023-01-15T15:04:09;6.40;99.90
23991;DHT22;12205;50.600;4.608;2023-01-15T15:06:46;6.30;99.90
23991;DHT22;12205;50.600;4.608;2023-01-15T15:09:25;6.30;99.90
23991;DHT22;12205;50.600;4.608;2023-01-15T15:12:02;6.10;99.90
23991;DHT22;12205;50.600;4.608;2023-01-15T15:14:51;6.10;99.90
23991;DHT22;12205;50.600;4.608;2023-01-15T15:17:36;6.00;99.90
23991;DHT22;12205;50.600;4.608;2023-01-15T15:20:17;5.90;99.90
23991;DHT22;12205;50.600;4.608;2023-01-15T15:22:52;5.90;99.90
23991;DHT22;12205;50.600;4.608;2023-01-15T15:25:24;5.90;99.90
23991;DHT22;12205;50.600;4.608;2023-01-15T15:28:02;5.90;99.90
23991;DHT22;12205;50.600;4.608;2023-01-15T15:30:34;5.90;99.90
23991;DHT22;12205;50.600;4.608;2023-01-15T15:33:05;5.90;99.90
23991;DHT22;12205;50.600;4.608;2023-01-15T15:35:44;6.00;99.90
23991;DHT22;12205;50.600;4.608;2023-01-15T15:38:16;5.90;99.90
23991;DHT22;12205;50.600;4.608;2023-01-15T15:40:45;6.00;99.90
23991;DHT22;12205;50.600;4.608;2023-01-15T15:43:19;6.00;99.90
23991;DHT22;12205;50.600;4.608;2023-01-15T15:46:24;6.00;99.90
23991;DHT22;12205;50.600;4.608;2023-01-15T15:49:11;6.00;99.90
23991;DHT22;12205;50.600;4.608;2023-01-15T15:51:43;6.00;99.90
23991;DHT22;12205;50.600;4.608;2023-01-15T15:54:15;5.90;99.90
23991;DHT22;12205;50.600;4.608;2023-01-15T15:56:51;5.90;99.90
23991;DHT22;12205;50.600;4.608;2023-01-15T15:59:30;5.80;99.90
23991;DHT22;12205;50.600;4.608;2023-01-15T16:02:12;5.70;99.90
23991;DHT22;12205;50.600;4.608;2023-01-15T16:04:47;5.60;99.90
23991;DHT22;12205;50.600;4.608;2023-01-15T16:07:21;5.60;99.90
23991;DHT22;12205;50.600;4.608;2023-01-15T16:09:55;5.50;99.90
23991;DHT22;12205;50.600;4.608;2023-01-15T16:12:26;5.50;99.90
23991;DHT22;12205;50.600;4.608;2023-01-15T16:14:56;5.50;99.90
23991;DHT22;12205;50.600;4.608;2023-01-15T16:17:26;5.40;99.90
23991;DHT22;12205;50.600;4.608;2023-01-15T16:19:54;5.50;99.90
23991;DHT22;12205;50.600;4.608;2023-01-15T16:22:23;5.50;99.90
23991;DHT22;12205;50.600;4.608;2023-01-15T16:24:54;5.50;99.90
23991;DHT22;12205;50.600;4.608;2023-01-15T16:27:24;5.50;99.90
23991;DHT22;12205;50.600;4.608;2023-01-15T16:29:55;5.50;99.90
23991;DHT22;12205;50.600;4.608;2023-01-15T16:32:25;5.50;99.90
23991;DHT22;12205;50.600;4.608;2023-01-15T16:35:01;5.50;99.90
23991;DHT22;12205;50.600;4.608;2023-01-15T16:37:31;5.60;99.90
23991;DHT22;12205;50.600;4.608;2023-01-15T16:40:01;5.60;99.90
23991;DHT22;12205;50.600;4.608;2023-01-15T16:42:34;5.60;99.90
23991;DHT22;12205;50.600;4.608;2023-01-15T16:45:11;5.60;99.90